Time;durP1;ratioP1;P1;durP2;ratioP2;P2;SDS_P1;SDS_P2;PMS_P1;PMS_P2;Temp;Humidity;BMP_temperature;BMP_pressure;BME280_temperature;BME280_humidity;BME280_pressure;Samples;Min_cycle;Max_cycle;Signal;HPM_P1;HPM_P2
2022/08/17 00:05:35;;;;;;;14.30;11.20;;;;;;;19.57;78.93;98128.04;109603;1276;1016342;-75
2022/08/17 00:10:43;;;;;;;13.10;10.50;;;;;;;19.54;79.09;98130.08;109820;1277;1016274;-75
2022/08/17 00:16:17;;;;;;;14.00;9.90;;;;;;;19.50;79.13;98126.06;109642;1277;1018181;-75
2022/08/17 00:22:19;;;;;;;15.00;10.40;;;;;;;19.45;79.51;98128.70;109597;1276;1016554;-75
2022/08/17 00:27:43;;;;;;;16.20;10.90;;;;;;;19.34;79.62;98131.63;109466;1276;1018666;-74
2022/08/17 00:32:59;;;;;;;15.90;11.60;;;;;;;19.19;80.08;98141.85;109657;1276;1016588;-75
2022/08/17 00:38:28;;;;;;;15.50;10.80;;;;;;;19.02;80.32;98144.25;109622;1276;1016617;-76
2022/08/17 00:43:52;;;;;;;11.20;8.80;;;;;;;18.92;80.81;98149.34;109822;1277;1016255;-75
2022/08/17 00:49:18;;;;;;;14.00;10.20;;;;;;;18.86;80.98;98152.46;109507;1280;1017136;-74
2022/08/17 00:54:59;;;;;;;12.90;10.20;;;;;;;18.82;81.20;98150.13;109589;1280;1018803;-75
2022/08/17 01:01:54;;;;;;;14.20;10.70;;;;;;;18.80;81.50;98144.90;109383;1280;1017260;-75
2022/08/17 01:07:35;;;;;;;14.20;10.50;;;;;;;18.78;81.69;98141.75;109613;1280;1017318;-76
2022/08/17 01:19:25;;;;;;;11.10;9.40;;;;;;;18.74;82.11;98140.90;109638;1276;1016297;-76
2022/08/17 01:25:01;;;;;;;12.60;10.10;;;;;;;18.69;82.29;98138.34;109609;1276;1018340;-76
2022/08/17 01:30:53;;;;;;;13.90;10.60;;;;;;;18.64;82.42;98140.02;109672;1277;1016529;-75
2022/08/17 01:36:32;;;;;;;15.60;10.70;;;;;;;18.61;82.59;98141.34;109689;1276;1016580;-75
2022/08/17 01:42:37;;;;;;;11.40;9.50;;;;;;;18.60;82.61;98143.13;109031;1276;1546879;-75
2022/08/17 01:48:47;;;;;;;11.30;9.30;;;;;;;18.53;83.15;98146.15;109533;1277;1016568;-75
2022/08/17 01:54:36;;;;;;;13.70;10.30;;;;;;;18.48;83.30;98146.20;109784;1276;1020131;-75
2022/08/17 02:00:35;;;;;;;;;;;;;;;;;;;;;
2022/08/17 02:06:47;;;;;;;14.40;10.70;;;;;;;18.39;83.99;98143.77;109720;1276;1020879;-75
2022/08/17 02:12:11;;;;;;;14.40;10.70;;;;;;;18.28;84.54;98140.54;109655;1276;1016480;-75
2022/08/17 02:19:11;;;;;;;12.00;10.60;;;;;;;18.20;84.41;98140.90;109743;1276;1016711;-76
2022/08/17 02:31:31;;;;;;;14.60;10.90;;;;;;;18.04;85.25;98135.59;109749;1276;1018216;-76
2022/08/17 02:37:28;;;;;;;16.00;12.70;;;;;;;17.99;85.31;98139.73;109508;1276;1016703;-75
2022/08/17 02:51:39;;;;;;;18.70;13.80;;;;;;;17.98;86.15;98147.45;109644;1278;1016741;-75
2022/08/17 02:57:55;;;;;;;15.90;11.70;;;;;;;17.99;86.15;98153.45;109578;1276;1018609;-75
2022/08/17 03:04:07;;;;;;;15.60;11.00;;;;;;;17.97;86.17;98148.66;109633;1276;1016776;-75
2022/08/17 03:10:35;;;;;;;17.80;12.10;;;;;;;17.93;86.35;98149.83;109676;1279;1016719;-75
2022/08/17 03:24:05;;;;;;;16.40;13.70;;;;;;;17.93;86.61;98153.39;109557;1276;1018779;-74
2022/08/17 03:44:08;;;;;;;15.80;11.60;;;;;;;17.99;87.30;98166.23;109606;1276;1018740;-75
2022/08/17 04:03:18;;;;;;;;;;;;;;;;;;;;;
2022/08/17 04:10:33;;;;;;;15.70;11.80;;;;;;;17.90;87.98;98177.23;109687;1276;1016537;-75
2022/08/17 04:16:24;;;;;;;18.20;13.50;;;;;;;17.96;87.95;98187.68;109377;1279;1016704;-75
2022/08/17 04:22:24;;;;;;;17.10;13.30;;;;;;;18.07;87.95;98200.77;109588;1276;1016756;-73
2022/08/17 04:27:49;;;;;;;17.70;14.30;;;;;;;18.14;87.69;98206.98;109690;1277;1018005;-75
2022/08/17 04:33:28;;;;;;;16.40;12.80;;;;;;;18.24;87.81;98206.89;109847;1276;1018216;-74
2022/08/17 04:39:04;;;;;;;17.90;12.90;;;;;;;18.33;87.69;98214.44;109700;1277;1016709;-75
2022/08/17 04:44:32;;;;;;;18.40;14.80;;;;;;;18.40;87.51;98219.63;109739;1276;1016514;-75
2022/08/17 04:49:52;;;;;;;;;;;;;;;;;;;;;
2022/08/17 04:55:14;;;;;;;19.20;14.00;;;;;;;18.73;87.75;98226.08;109760;1276;1016428;-76
2022/08/17 05:00:44;;;;;;;16.60;13.10;;;;;;;18.92;87.61;98233.30;109856;1277;1018312;-76
2022/08/17 05:06:21;;;;;;;16.70;13.60;;;;;;;19.08;87.17;98232.23;109781;1276;1016556;-75
2022/08/17 05:11:33;;;;;;;16.10;13.20;;;;;;;19.25;86.99;98237.45;109781;1276;1017190;-74
2022/08/17 05:17:13;;;;;;;18.40;13.60;;;;;;;19.37;86.48;98240.69;109773;1276;1018657;-74
2022/08/17 05:23:06;;;;;;;19.50;14.40;;;;;;;19.47;86.21;98247.77;109698;1276;1016656;-76
2022/08/17 05:28:32;;;;;;;17.80;13.70;;;;;;;19.63;86.21;98245.26;109711;1276;1016674;-75
2022/08/17 05:34:07;;;;;;;17.00;14.10;;;;;;;19.81;85.64;98243.40;109527;1276;1016680;-75
2022/08/17 05:39:28;;;;;;;19.50;15.30;;;;;;;19.96;85.40;98240.56;109793;1276;1017345;-75
2022/08/17 05:45:19;;;;;;;16.60;13.60;;;;;;;20.13;85.00;98242.61;109829;1276;1016573;-76
2022/08/17 05:51:25;;;;;;;;;;;;;;;;;;;;;
2022/08/17 05:57:47;;;;;;;;;;;;;;;;;;;;;
2022/08/17 06:03:20;;;;;;;;;;;;;;;20.75;83.80;98241.56;109801;1277;1016895;-79
2022/08/17 06:09:27;;;;;;;;;;;;;;;;;;;;;
2022/08/17 06:15:06;;;;;;;20.70;13.30;;;;;;;21.23;82.86;98246.41;109778;1277;1016262;-80
2022/08/17 06:20:13;;;;;;;17.40;13.20;;;;;;;21.45;82.58;98246.50;110014;1276;1018957;-78
2022/08/17 06:25:30;;;;;;;21.80;14.10;;;;;;;21.70;81.73;98245.04;110067;1276;1016634;-78
2022/08/17 06:31:05;;;;;;;16.00;13.20;;;;;;;21.93;80.98;98246.48;109738;1279;1016394;-77
2022/08/17 06:36:43;;;;;;;18.10;14.40;;;;;;;22.15;80.13;98241.82;109865;1279;1016659;-77
2022/08/17 06:42:43;;;;;;;17.40;14.20;;;;;;;22.36;79.26;98241.44;109583;1281;1016671;-77
2022/08/17 06:48:26;;;;;;;17.20;13.40;;;;;;;22.57;78.63;98240.56;109716;1280;1016386;-79
2022/08/17 06:53:40;;;;;;;15.30;13.70;;;;;;;22.82;78.37;98236.08;109866;1282;1016507;-76
2022/08/17 06:58:58;;;;;;;17.50;12.90;;;;;;;23.03;77.13;98234.74;111912;1279;1016192;-77
2022/08/17 07:04:34;;;;;;;13.30;11.80;;;;;;;23.22;76.81;98239.29;112712;1277;1017858;-77
2022/08/17 07:09:42;;;;;;;15.10;12.60;;;;;;;23.44;76.16;98249.02;112675;1279;1017903;-77
2022/08/17 07:15:05;;;;;;;15.80;13.40;;;;;;;23.73;75.98;98246.33;112927;1276;1016236;-78
2022/08/17 07:20:23;;;;;;;15.50;12.90;;;;;;;23.99;74.70;98251.30;112510;1279;1016893;-77
2022/08/17 07:25:31;;;;;;;14.30;12.80;;;;;;;24.24;74.29;98255.89;113005;1277;1015814;-76
2022/08/17 07:30:49;;;;;;;20.20;13.50;;;;;;;24.56;73.94;98258.67;112847;1276;1015745;-79
2022/08/17 07:36:04;;;;;;;13.90;12.30;;;;;;;24.85;73.22;98262.04;112878;1276;1016393;-77
2022/08/17 07:41:43;;;;;;;14.70;13.20;;;;;;;25.10;71.58;98265.93;112407;1276;1015909;-75
2022/08/17 07:52:36;;;;;;;15.30;12.30;;;;;;;25.59;70.50;98268.74;112480;1276;1016532;-76
2022/08/17 07:58:00;;;;;;;13.10;11.80;;;;;;;25.83;69.80;98269.21;112481;1276;1018775;-76
2022/08/17 08:03:42;;;;;;;17.90;12.10;;;;;;;25.98;68.44;98267.46;110216;1277;1016541;-77
2022/08/17 08:09:39;;;;;;;13.10;11.70;;;;;;;26.20;67.95;98266.44;109944;1276;1016735;-77
2022/08/17 08:15:01;;;;;;;13.80;11.50;;;;;;;26.38;67.53;98273.56;109956;1277;1016590;-77
2022/08/17 08:20:10;;;;;;;14.10;12.50;;;;;;;26.57;67.11;98270.88;110032;1276;1016537;-78
2022/08/17 08:26:00;;;;;;;12.60;11.40;;;;;;;26.81;66.67;98272.52;109871;1277;1016971;-78
2022/08/17 08:31:45;;;;;;;13.00;11.70;;;;;;;27.03;65.90;98270.30;110035;1277;1016704;-76
2022/08/17 08:36:51;;;;;;;12.50;11.30;;;;;;;27.16;65.24;98265.74;109766;1279;1016235;-76
2022/08/17 08:42:41;;;;;;;12.10;10.90;;;;;;;27.35;64.90;98275.79;109989;1276;1018595;-77
2022/08/17 08:47:58;;;;;;;;;;;;;;;27.48;63.65;98276.72;109654;1279;1018039;-78
2022/08/17 08:53:51;;;;;;;11.60;10.50;;;;;;;27.63;63.12;98277.92;109819;1276;1016605;-77
2022/08/17 08:59:28;;;;;;;11.20;10.00;;;;;;;27.86;62.51;98277.90;109773;1277;1018941;-76
2022/08/17 09:05:06;;;;;;;12.10;10.10;;;;;;;28.06;61.69;98280.04;110163;1276;1016685;-77
2022/08/17 09:10:55;;;;;;;10.90;9.80;;;;;;;28.17;60.63;98281.68;109720;1277;1016522;-77
2022/08/17 09:16:05;;;;;;;11.50;10.30;;;;;;;28.29;60.36;98284.77;110383;1279;1017067;-77
2022/08/17 09:21:45;;;;;;;12.30;11.00;;;;;;;28.38;59.65;98282.34;110024;1277;1016582;-76
2022/08/17 09:27:20;;;;;;;11.30;9.50;;;;;;;28.49;59.26;98283.55;110080;1277;1016562;-76
2022/08/17 09:32:56;;;;;;;9.70;8.70;;;;;;;28.61;58.48;98279.66;109901;1277;1016776;-75
2022/08/17 09:38:51;;;;;;;10.60;9.50;;;;;;;28.71;57.14;98284.13;110042;1276;1016676;-75
2022/08/17 09:44:15;;;;;;;11.00;9.50;;;;;;;28.85;57.21;98280.64;110121;1277;1017415;-76
2022/08/17 09:49:43;;;;;;;10.50;9.50;;;;;;;28.97;56.51;98282.05;110223;1276;1016620;-76
2022/08/17 09:54:51;;;;;;;11.40;9.40;;;;;;;29.08;56.08;98278.13;110397;1276;1017132;-76
2022/08/17 10:00:26;;;;;;;11.10;8.90;;;;;;;29.20;55.43;98274.89;110155;1276;1016901;-77
2022/08/17 10:06:07;;;;;;;11.40;9.50;;;;;;;29.27;54.39;98276.02;109933;1276;1016728;-76
2022/08/17 10:11:18;;;;;;;;;;;;;;;29.34;53.89;98274.44;109916;1276;1016272;-75
2022/08/17 10:16:51;;;;;;;9.90;8.90;;;;;;;29.39;53.58;98271.11;109825;1278;1016453;-75
2022/08/17 10:28:08;;;;;;;11.60;9.30;;;;;;;29.63;52.52;98276.79;109719;1277;1017210;-77
2022/08/17 10:33:26;;;;;;;9.60;8.60;;;;;;;29.71;52.00;98279.05;109939;1276;1016373;-77
2022/08/17 10:38:58;;;;;;;9.70;8.80;;;;;;;29.83;51.50;98272.88;110114;1276;1018406;-75
2022/08/17 10:44:07;;;;;;;10.20;9.20;;;;;;;29.97;51.52;98269.71;109778;1276;1018350;-76
2022/08/17 10:49:46;;;;;;;12.70;9.50;;;;;;;30.15;51.11;98267.06;109873;1277;1016145;-77
2022/08/17 10:55:06;;;;;;;9.60;7.70;;;;;;;30.22;49.87;98266.41;110006;1276;1016712;-77
2022/08/17 11:00:42;;;;;;;8.90;8.00;;;;;;;30.12;49.56;98264.14;109642;1281;1016133;-77
2022/08/17 11:06:05;;;;;;;9.40;8.40;;;;;;;30.34;49.99;98264.15;109492;1281;1017719;-77
2022/08/17 11:11:44;;;;;;;9.30;8.30;;;;;;;30.56;49.67;98264.08;109574;1281;1016633;-76
2022/08/17 11:17:40;;;;;;;9.10;8.20;;;;;;;30.69;48.24;98271.53;109344;1281;1019746;-75
2022/08/17 11:23:22;;;;;;;8.10;7.30;;;;;;;30.83;47.19;98274.36;109628;1276;1017360;-77
2022/08/17 11:28:34;;;;;;;9.10;7.90;;;;;;;31.03;46.83;98267.13;109752;1277;1016567;-79
2022/08/17 11:34:05;;;;;;;8.60;7.80;;;;;;;31.21;45.89;98264.05;110112;1277;1016476;-79
2022/08/17 11:39:39;;;;;;;8.50;7.70;;;;;;;31.24;45.29;98258.60;110180;1277;1016735;-78
2022/08/17 11:45:52;;;;;;;9.40;8.10;;;;;;;31.37;44.71;98254.10;109282;1284;1016900;-79
2022/08/17 11:51:35;;;;;;;9.90;7.30;;;;;;;31.42;44.26;98251.81;109484;1282;1016657;-78
2022/08/17 11:56:50;;;;;;;8.30;7.50;;;;;;;31.46;44.04;98247.59;109610;1282;1016680;-78
2022/08/17 12:02:18;;;;;;;9.20;8.30;;;;;;;31.46;43.75;98240.23;109337;1282;1016626;-79
2022/08/17 12:07:22;;;;;;;9.10;7.90;;;;;;;31.49;43.48;98237.69;109822;1277;1019595;-79
2022/08/17 12:12:35;;;;;;;8.50;7.60;;;;;;;31.52;43.81;98233.95;109776;1277;1016436;-77
2022/08/17 12:17:45;;;;;;;8.40;7.60;;;;;;;31.64;43.73;98234.32;109807;1277;1018479;-77
2022/08/17 12:23:17;;;;;;;8.70;7.90;;;;;;;31.61;43.13;98235.91;109856;1276;1019102;-78
2022/08/17 12:28:34;;;;;;;10.20;8.30;;;;;;;31.56;43.16;98234.08;109939;1277;1016993;-78
2022/08/17 12:33:44;;;;;;;8.40;6.90;;;;;;;31.65;43.01;98234.46;109854;1277;1016684;-77
2022/08/17 12:39:05;;;;;;;9.00;8.10;;;;;;;31.74;42.78;98241.13;109772;1277;1018960;-77
2022/08/17 12:44:23;;;;;;;8.60;7.70;;;;;;;31.76;42.70;98236.94;110293;1278;1016543;-79
2022/08/17 12:49:34;;;;;;;8.10;7.40;;;;;;;31.84;42.61;98229.70;110049;1277;1017124;-78
2022/08/17 12:55:04;;;;;;;8.60;7.80;;;;;;;32.01;42.18;98235.02;110163;1277;1016631;-79
2022/08/17 13:00:32;;;;;;;9.10;7.60;;;;;;;32.16;41.76;98223.77;110390;1277;1016185;-84
2022/08/17 13:06:05;;;;;;;8.80;8.00;;;;;;;32.15;41.54;98223.65;110405;1278;1016572;-78
2022/08/17 13:11:33;;;;;;;9.20;8.10;;;;;;;32.14;41.54;98218.55;113004;1276;1016321;-80
2022/08/17 13:16:36;;;;;;;8.70;7.90;;;;;;;32.16;41.35;98220.98;151681;1275;1016247;-80
2022/08/17 13:21:57;;;;;;;9.40;8.10;;;;;;;32.18;41.10;98218.01;220361;1278;22606;-79
2022/08/17 13:27:02;;;;;;;8.90;8.10;;;;;;;32.21;41.27;98212.77;215540;1277;1003895;-79
2022/08/17 13:32:30;;;;;;;8.80;7.90;;;;;;;32.29;41.34;98216.45;220345;1277;22573;-79
2022/08/17 13:37:35;;;;;;;9.40;8.60;;;;;;;32.18;40.58;98215.40;220441;1277;25334;-78
2022/08/17 13:42:49;;;;;;;8.40;7.50;;;;;;;32.09;40.99;98209.02;216844;1277;4997132;-79
2022/08/17 13:48:30;;;;;;;8.70;7.90;;;;;;;32.12;41.21;98214.48;220648;1277;24216;-79
2022/08/17 13:54:00;;;;;;;8.80;7.90;;;;;;;32.11;41.31;98219.90;220348;1277;24262;-77
2022/08/17 13:59:35;;;;;;;8.30;7.60;;;;;;;32.11;41.04;98211.42;220490;1277;24023;-79
2022/08/17 14:05:02;;;;;;;8.80;7.80;;;;;;;32.07;40.83;98213.83;220487;1277;24258;-79
2022/08/17 14:10:19;;;;;;;8.10;7.40;;;;;;;32.03;40.31;98218.16;219926;1277;26509;-80
2022/08/17 14:15:25;;;;;;;7.80;7.10;;;;;;;32.02;40.24;98217.31;220209;1281;25327;-80
2022/08/17 14:20:47;;;;;;;7.50;6.50;;;;;;;31.93;39.65;98218.59;219768;1277;22591;-80
2022/08/17 14:26:05;;;;;;;6.50;5.90;;;;;;;31.89;38.92;98219.19;219921;1278;22710;-80
2022/08/17 14:31:18;;;;;;;6.80;6.20;;;;;;;31.87;38.54;98217.27;219682;1278;23001;-84
2022/08/17 14:36:41;;;;;;;6.80;6.30;;;;;;;31.79;38.39;98220.16;219860;1277;22562;-79
2022/08/17 14:42:08;;;;;;;7.30;6.70;;;;;;;31.81;38.52;98217.89;219776;1277;24231;-79
2022/08/17 14:47:14;;;;;;;9.10;7.50;;;;;;;31.82;38.66;98215.92;219968;1277;25270;-81
2022/08/17 14:52:20;;;;;;;8.60;7.60;;;;;;;31.85;38.83;98217.98;219952;1277;24267;-79
2022/08/17 14:57:27;;;;;;;;;;;;;;;31.84;38.93;98216.59;220168;1277;22668;-81
2022/08/17 15:02:44;;;;;;;8.90;8.00;;;;;;;31.79;39.03;98213.90;206048;1277;1004051;-82
2022/08/17 15:07:52;;;;;;;7.60;6.90;;;;;;;31.77;39.11;98213.97;219892;1277;25370;-79
2022/08/17 15:13:28;;;;;;;7.10;6.50;;;;;;;31.79;39.14;98204.98;219950;1277;25448;-80
2022/08/17 15:18:40;;;;;;;7.20;6.60;;;;;;;31.79;38.78;98212.64;219622;1277;22565;-82
2022/08/17 15:23:56;;;;;;;6.90;6.30;;;;;;;31.78;38.82;98217.83;219850;1277;24855;-81
2022/08/17 15:29:40;;;;;;;7.40;6.70;;;;;;;31.70;38.09;98214.18;220161;1277;22556;-79
2022/08/17 15:34:57;;;;;;;6.80;6.10;;;;;;;31.62;38.20;98216.59;219952;1277;25476;-78
2022/08/17 15:40:05;;;;;;;7.20;6.50;;;;;;;31.53;38.23;98218.48;219969;1277;22554;-80
2022/08/17 15:45:55;;;;;;;6.60;6.00;;;;;;;31.49;38.16;98209.77;220069;1277;22580;-79
2022/08/17 15:51:32;;;;;;;7.70;6.30;;;;;;;31.46;38.25;98209.34;219839;1277;25346;-80
2022/08/17 15:56:40;;;;;;;6.70;6.10;;;;;;;31.40;38.36;98207.43;135675;1280;1016738;-79
2022/08/17 16:01:49;;;;;;;7.40;6.70;;;;;;;31.36;38.48;98205.67;109758;1277;1018421;-79
2022/08/17 16:07:16;;;;;;;7.10;6.30;;;;;;;31.34;38.68;98200.91;109759;1277;1021320;-79
2022/08/17 16:12:20;;;;;;;6.60;5.90;;;;;;;31.32;38.68;98205.98;109638;1277;1016417;-79
2022/08/17 16:17:27;;;;;;;6.70;6.10;;;;;;;31.28;38.86;98201.84;109832;1277;1017069;-79
2022/08/17 16:22:45;;;;;;;7.30;6.70;;;;;;;31.24;38.89;98200.50;109788;1277;1017154;-79
2022/08/17 16:27:53;;;;;;;7.30;6.60;;;;;;;31.20;38.89;98198.96;109928;1277;1016607;-77
2022/08/17 16:33:02;;;;;;;7.50;6.70;;;;;;;31.13;39.24;98205.90;109633;1277;1016545;-79
2022/08/17 16:38:05;;;;;;;7.40;6.60;;;;;;;31.04;39.29;98208.86;109766;1277;1016917;-79
2022/08/17 16:43:17;;;;;;;8.30;6.50;;;;;;;30.94;39.23;98215.83;109754;1276;1018320;-80
2022/08/17 16:48:33;;;;;;;6.80;6.20;;;;;;;30.82;39.41;98218.64;181486;1279;1016248;-81
2022/08/17 16:53:43;;;;;;;7.40;6.70;;;;;;;30.69;39.74;98220.98;219462;1279;24119;-78
2022/08/17 16:59:13;;;;;;;7.60;6.80;;;;;;;30.51;40.06;98222.49;220025;1276;26453;-79
2022/08/17 17:05:05;;;;;;;8.00;7.20;;;;;;;30.35;40.32;98222.84;219678;1279;22563;-79
2022/08/17 17:10:21;;;;;;;10.90;7.60;;;;;;;30.14;40.42;98227.70;219833;1276;22635;-78
2022/08/17 17:15:59;;;;;;;8.70;7.20;;;;;;;29.95;40.64;98231.20;219884;1276;24273;-80
2022/08/17 17:22:43;;;;;;;7.80;7.00;;;;;;;29.67;41.11;98227.27;219834;1276;24384;-80
2022/08/17 17:28:45;;;;;;;8.40;6.90;;;;;;;29.41;41.48;98232.06;220057;1277;24446;-79
2022/08/17 17:34:17;;;;;;;9.50;8.20;;;;;;;29.16;41.84;98237.70;219957;1277;23863;-80
2022/08/17 17:39:43;;;;;;;8.40;7.50;;;;;;;28.94;42.27;98245.09;219344;1276;1002721;-80
2022/08/17 17:45:26;;;;;;;;;;;;;;;;;;;;;
2022/08/17 17:51:21;;;;;;;8.80;7.30;;;;;;;28.44;43.27;98247.75;219886;1276;23005;-80
2022/08/17 17:57:12;;;;;;;8.70;7.40;;;;;;;28.20;44.21;98250.55;220478;1276;22545;-79
2022/08/17 18:02:52;;;;;;;8.70;7.50;;;;;;;28.02;44.81;98253.60;219934;1276;22591;-79
2022/08/17 18:08:19;;;;;;;8.40;7.60;;;;;;;27.77;45.06;98254.30;219978;1276;22628;-78
2022/08/17 18:13:59;;;;;;;9.60;8.20;;;;;;;27.53;45.81;98248.61;219881;1276;25321;-78
2022/08/17 18:19:25;;;;;;;9.80;8.60;;;;;;;27.39;46.61;98246.60;215954;1279;1016482;-79
2022/08/17 18:24:40;;;;;;;21.50;10.50;;;;;;;27.18;47.20;98255.42;167870;1276;1017296;-78
2022/08/17 18:30:32;;;;;;;13.60;11.20;;;;;;;26.96;47.70;98255.69;193468;1276;1016158;-80
2022/08/17 18:36:43;;;;;;;11.70;10.50;;;;;;;26.74;48.31;98268.11;218611;1279;1002513;-79
2022/08/17 18:42:45;;;;;;;16.00;10.50;;;;;;;26.55;49.00;98272.54;218692;1279;1002377;-80
2022/08/17 18:48:18;;;;;;;13.80;11.00;;;;;;;26.33;49.74;98272.98;219366;1278;22568;-80
2022/08/17 18:53:51;;;;;;;13.10;10.80;;;;;;;26.13;50.43;98275.44;219239;1279;24271;-80
2022/08/17 18:59:40;;;;;;;15.00;10.70;;;;;;;25.93;50.97;98280.49;219053;1279;23080;-79
2022/08/17 19:06:13;;;;;;;16.90;11.80;;;;;;;25.74;51.72;98291.30;218118;1277;1003335;-79
2022/08/17 19:11:48;;;;;;;14.10;12.10;;;;;;;25.54;52.17;98300.58;220004;1276;25313;-79
2022/08/17 19:17:27;;;;;;;;;;;;;;;;;;;;;
2022/08/17 19:29:42;;;;;;;13.90;11.90;;;;;;;25.05;53.70;98313.39;219993;1276;22688;-80
2022/08/17 19:36:23;;;;;;;14.40;12.10;;;;;;;24.92;54.85;98307.89;219402;1281;23816;-79
2022/08/17 19:42:46;;;;;;;;;;;;;;;;;;;;;
2022/08/17 19:49:48;;;;;;;15.90;12.00;;;;;;;24.48;55.86;98301.77;218086;1282;24230;-78
2022/08/17 19:55:51;;;;;;;11.90;10.60;;;;;;;24.26;56.64;98305.94;218473;1284;25408;-79
2022/08/17 20:01:12;;;;;;;12.90;11.10;;;;;;;24.06;57.08;98320.86;218175;1284;22640;-80
2022/08/17 20:06:27;;;;;;;17.00;12.30;;;;;;;23.90;57.80;98322.48;218956;1279;25485;-80
2022/08/17 20:11:40;;;;;;;18.70;10.70;;;;;;;23.75;58.20;98322.20;218724;1281;25585;-81
2022/08/17 20:16:48;;;;;;;13.00;10.80;;;;;;;23.59;58.55;98315.59;219318;1278;22574;-79
2022/08/17 20:22:17;;;;;;;13.90;11.50;;;;;;;23.45;59.21;98309.08;219573;1277;22704;-80
2022/08/17 20:27:28;;;;;;;14.80;12.10;;;;;;;23.31;59.98;98305.36;219829;1275;25309;-80
2022/08/17 20:32:57;;;;;;;16.30;11.80;;;;;;;23.22;60.68;98293.70;219953;1278;25383;-79
2022/08/17 20:38:30;;;;;;;16.10;12.10;;;;;;;23.12;61.39;98290.83;219538;1277;22590;-80
2022/08/17 20:43:32;;;;;;;17.10;13.00;;;;;;;23.04;62.37;98289.00;219712;1277;22724;-79
2022/08/17 20:48:51;;;;;;;15.60;13.10;;;;;;;22.94;62.68;98288.02;219663;1278;24426;-80
2022/08/17 20:59:42;;;;;;;14.80;12.40;;;;;;;22.69;64.14;98299.89;219837;1276;22575;-82
2022/08/17 21:04:55;;;;;;;15.70;12.50;;;;;;;22.60;64.46;98305.92;219856;1276;22622;-80
2022/08/17 21:10:22;;;;;;;14.60;12.10;;;;;;;22.49;64.70;98310.67;219877;1276;24273;-80
2022/08/17 21:15:47;;;;;;;15.20;11.60;;;;;;;22.37;65.26;98306.54;219692;1276;22600;-80
2022/08/17 21:21:31;;;;;;;14.50;11.30;;;;;;;22.27;65.60;98294.36;219643;1276;22538;-81
2022/08/17 21:27:19;;;;;;;15.10;12.60;;;;;;;22.18;66.27;98293.67;219395;1276;22645;-79
2022/08/17 21:32:28;;;;;;;16.90;12.30;;;;;;;22.11;66.85;98292.21;211853;1276;1003834;-80
2022/08/17 21:38:12;;;;;;;15.00;12.40;;;;;;;22.10;67.47;98288.30;218793;1277;1002471;-78
2022/08/17 21:43:46;;;;;;;17.50;12.70;;;;;;;22.02;67.82;98284.50;109811;1278;1016719;-80
2022/08/17 21:49:12;;;;;;;17.00;13.20;;;;;;;21.92;68.22;98274.91;128141;1276;1016241;-81
2022/08/17 21:54:43;;;;;;;14.80;12.70;;;;;;;21.83;68.76;98266.42;170955;1276;1015979;-79
2022/08/17 22:00:26;;;;;;;16.60;13.80;;;;;;;21.73;69.26;98264.30;109743;1276;1016140;-78
2022/08/17 22:05:53;;;;;;;20.90;14.70;;;;;;;21.64;69.85;98267.40;117791;1277;1018309;-80
2022/08/17 22:12:06;;;;;;;19.30;13.10;;;;;;;21.56;70.27;98261.18;192247;1279;1005798;-79
2022/08/17 22:17:56;;;;;;;;;;;;;;;;;;;;;
2022/08/17 22:24:04;;;;;;;16.80;13.70;;;;;;;21.38;71.38;98244.02;219576;1279;25271;-78
2022/08/17 22:30:10;;;;;;;18.40;14.20;;;;;;;21.30;72.02;98245.00;219948;1277;22542;-79
2022/08/17 22:36:17;;;;;;;20.00;15.50;;;;;;;21.20;72.56;98244.36;219688;1277;22557;-80
2022/08/17 22:42:11;;;;;;;20.60;14.40;;;;;;;21.08;72.98;98251.36;219957;1277;23057;-80
2022/08/17 22:47:38;;;;;;;17.80;15.80;;;;;;;20.99;73.18;98254.24;219697;1277;22597;-81
2022/08/17 23:00:00;;;;;;;17.70;14.50;;;;;;;20.83;73.64;98289.27;219253;1278;22607;-80
2022/08/17 23:07:05;;;;;;;18.60;14.70;;;;;;;20.74;73.98;98300.17;219821;1279;24197;-78
2022/08/17 23:12:28;;;;;;;17.10;14.30;;;;;;;20.66;74.20;98308.38;219796;1277;25436;-80
2022/08/17 23:18:16;;;;;;;18.30;14.40;;;;;;;20.61;74.60;98308.91;219657;1278;22939;-79
2022/08/17 23:24:08;;;;;;;18.80;15.20;;;;;;;20.57;74.80;98305.28;219369;1282;24462;-79
2022/08/17 23:30:53;;;;;;;;;;;;;;;;;;;;;
2022/08/17 23:37:03;;;;;;;;;;;;;;;;;;;;;
2022/08/17 23:43:26;;;;;;;17.30;15.50;;;;;;;20.41;75.74;98308.23;219230;1281;24497;-79
2022/08/17 23:48:40;;;;;;;;;;;;;;;;;;;;;
2022/08/17 23:54:21;;;;;;;21.70;16.00;;;;;;;20.30;76.14;98302.85;219815;1277;26523;-79
